KHCD Airport (Hutchinson Muni-Butler Field) Information

FAA: HCD - ICAO: KHCD

KHCD Airport Location

State Minnesota
County Mc Leod
City Hutchinson
KHCD Airport is 2 miles south of Hutchinson, MN.
Latitude 44-51-35.6000N
Longitude 094-22-57.0000W
Elevation 1,062ft

KHCD Airport METARs

METAR KHCD 262335Z AUTO 14005KT 10SM CLR 01/M07 A2986 RMK AO2 T00101071
Altimeter 29.86"
Temperature 1.0°C (33.8°F)
Wind 140° at 5KT
Clouds Skies are clear.
Visibility 10.0mi
Time observed: 2021-11-26T23:35:00Z

KHCD Airport Details

Status Operational
Activation September 1964
Ownership Public
Usage Public
Chart TWIN CITIES
ATC on-site No
Beacon schedule sunset-sunrise
Beacon color clear green

KHCD Airport Contacts

Owner CITY OF HUTCHINSON
Owner address 111 HASSAN ST, HUTCHINSON, MN 55350
Owner phone 320-587-5151
Manager LISA JETVIG
Manager address P.O. BOX 69, HAWLEY, MN 56549
Manager phone 218-483-3331

KHCD Airport (Hutchinson Muni-Butler Field) Radio Frequencies

KHCD (Airport) Radio Frequencies

UNICOM 122.8
Common traffic advisory frequency (CTAF) 122.8